createdAt,value
2022-10-21T00:00:51.141Z,97864.41
2022-10-21T00:03:19.735Z,97856.88
2022-10-21T00:05:47.707Z,97856.00
2022-10-21T00:08:16.251Z,97866.47
2022-10-21T00:10:43.740Z,97869.97
2022-10-21T00:13:12.228Z,97884.06
2022-10-21T00:15:39.718Z,97880.38
2022-10-21T00:18:07.235Z,97873.19
2022-10-21T00:20:37.437Z,97877.44
2022-10-21T00:23:07.608Z,97870.78
2022-10-21T00:25:35.099Z,97882.84
2022-10-21T00:28:02.560Z,97888.78
2022-10-21T00:30:30.089Z,97875.06
2022-10-21T00:33:02.071Z,97877.09
2022-10-21T00:35:33.775Z,97880.44
2022-10-21T00:38:01.269Z,97873.28
2022-10-21T00:40:28.879Z,97852.22
2022-10-21T00:42:56.440Z,97849.13
2022-10-21T00:45:29.529Z,97839.50
2022-10-21T00:48:07.707Z,97831.31
2022-10-21T00:50:42.426Z,97831.50
2022-10-21T00:53:14.429Z,97824.84
2022-10-21T00:55:49.467Z,97812.00
2022-10-21T00:58:19.068Z,97814.28
2022-10-21T01:00:46.690Z,97810.97
2022-10-21T01:03:14.687Z,97807.47
2022-10-21T01:05:42.975Z,97803.81
2022-10-21T01:08:10.699Z,97799.50
2022-10-21T01:10:38.848Z,97798.94
2022-10-21T01:13:40.708Z,97807.34
2022-10-21T01:16:13.716Z,97790.72
2022-10-21T01:19:05.597Z,97776.59
2022-10-21T01:21:40.414Z,97764.72
2022-10-21T01:24:26.338Z,97755.16
2022-10-21T01:26:53.788Z,97749.81
2022-10-21T01:29:46.589Z,97752.47
2022-10-21T01:32:28.424Z,97750.00
2022-10-21T01:35:19.523Z,97749.66
2022-10-21T01:38:24.578Z,97743.53
2022-10-21T01:41:20.987Z,97741.22
2022-10-21T01:44:12.568Z,97736.13
2022-10-21T01:46:42.914Z,97738.41
2022-10-21T01:49:27.155Z,97718.97
2022-10-21T01:51:54.847Z,97701.41
2022-10-21T01:54:36.418Z,97700.16
2022-10-21T01:57:06.586Z,97698.69
2022-10-21T01:59:35.484Z,97708.94
2022-10-21T02:02:06.688Z,97709.53
2022-10-21T02:04:36.878Z,97712.13
2022-10-21T02:07:04.877Z,97711.69
2022-10-21T02:12:06.814Z,97703.25
2022-10-21T02:14:40.919Z,97703.63
2022-10-21T02:17:10.286Z,97690.41
2022-10-21T02:19:37.741Z,97694.88
2022-10-21T02:22:06.863Z,97691.34
2022-10-21T02:24:44.397Z,97693.19
2022-10-21T02:27:12.056Z,97687.75
2022-10-21T02:29:44.378Z,97690.53
2022-10-21T02:32:48.907Z,97673.59
2022-10-21T02:35:43.837Z,97700.59
2022-10-21T02:38:23.881Z,97666.91
2022-10-21T02:41:02.198Z,97688.41
2022-10-21T02:43:38.786Z,97686.03
2022-10-21T02:46:09.343Z,97680.34
2022-10-21T02:48:40.228Z,97685.97
2022-10-21T02:51:08.367Z,97681.53
2022-10-21T02:53:36.386Z,97679.69
2022-10-21T02:56:04.778Z,97684.22
2022-10-21T02:58:32.566Z,97671.03
2022-10-21T03:01:00.434Z,97667.81
2022-10-21T03:03:30.023Z,97664.75
2022-10-21T03:05:57.943Z,97666.03
2022-10-21T03:08:25.436Z,97665.59
2022-10-21T03:10:53.578Z,97671.66
2022-10-21T03:13:22.511Z,97671.84
2022-10-21T03:15:50.485Z,97673.25
2022-10-21T03:18:18.818Z,97663.44
2022-10-21T03:20:50.435Z,97664.25
2022-10-21T03:23:19.135Z,97668.19
2022-10-21T03:25:47.436Z,97666.59
2022-10-21T03:28:16.111Z,97662.34
2022-10-21T03:30:43.666Z,97666.59
2022-10-21T03:33:11.195Z,97667.50
2022-10-21T03:35:38.646Z,97668.47
2022-10-21T03:38:06.143Z,97669.28
2022-10-21T03:40:33.639Z,97666.25
2022-10-21T03:43:01.117Z,97664.66
2022-10-21T03:45:28.694Z,97652.78
2022-10-21T03:47:56.546Z,97668.97
2022-10-21T03:50:26.527Z,97681.50
2022-10-21T03:52:54.932Z,97669.25
2022-10-21T03:55:24.419Z,97656.19
2022-10-21T03:57:52.818Z,97644.91
2022-10-21T04:00:20.594Z,97648.47
2022-10-21T04:02:48.205Z,97644.22
2022-10-21T04:05:15.813Z,97636.28
2022-10-21T04:07:43.675Z,97637.56
2022-10-21T04:10:11.714Z,97642.09
2022-10-21T04:12:39.648Z,97651.91
2022-10-21T04:15:08.227Z,97638.44
2022-10-21T04:17:35.762Z,97633.84
2022-10-21T04:20:03.627Z,97639.16
2022-10-21T04:22:31.122Z,97629.41
2022-10-21T04:25:00.956Z,97629.69
2022-10-21T04:27:31.736Z,97623.38
2022-10-21T04:29:59.311Z,97623.94
2022-10-21T04:32:26.682Z,97610.66
2022-10-21T04:34:54.222Z,97603.38
2022-10-21T04:37:21.821Z,97606.47
2022-10-21T04:39:49.325Z,97615.66
2022-10-21T04:42:16.909Z,97616.66
2022-10-21T04:44:44.326Z,97613.22
2022-10-21T04:47:11.835Z,97611.41
2022-10-21T04:49:39.308Z,97609.31
2022-10-21T04:52:06.785Z,97609.75
2022-10-21T04:54:34.302Z,97620.38
2022-10-21T04:57:01.746Z,97605.69
2022-10-21T04:59:29.284Z,97596.47
2022-10-21T05:01:56.780Z,97602.56
2022-10-21T05:04:24.334Z,97598.84
2022-10-21T05:06:51.950Z,97597.28
2022-10-21T05:09:19.463Z,97605.13
2022-10-21T05:11:46.985Z,97592.72
2022-10-21T05:14:16.581Z,97582.09
2022-10-21T05:16:45.165Z,97588.66
2022-10-21T05:19:12.769Z,97589.00
2022-10-21T05:21:40.269Z,97574.50
2022-10-21T05:24:07.771Z,97562.97
2022-10-21T05:26:35.340Z,97555.16
2022-10-21T05:29:02.864Z,97567.16
2022-10-21T05:31:30.865Z,97566.16
2022-10-21T05:33:58.424Z,97557.97
2022-10-21T05:36:26.044Z,97556.94
2022-10-21T05:38:54.183Z,97558.03
2022-10-21T05:41:21.655Z,97568.00
2022-10-21T05:43:49.105Z,97566.38
2022-10-21T05:46:16.554Z,97578.03
2022-10-21T05:48:44.160Z,97568.22
2022-10-21T05:51:11.800Z,97568.16
2022-10-21T05:53:39.993Z,97549.91
2022-10-21T05:56:08.492Z,97565.03
2022-10-21T05:58:35.934Z,97570.66
2022-10-21T06:01:03.870Z,97563.59
2022-10-21T06:03:33.330Z,97584.84
2022-10-21T06:06:03.633Z,97574.94
2022-10-21T06:08:33.040Z,97575.84
2022-10-21T06:11:01.980Z,97561.53
2022-10-21T06:13:29.554Z,97563.38
2022-10-21T06:15:57.739Z,97561.00
2022-10-21T06:18:25.605Z,97559.53
2022-10-21T06:20:53.099Z,97561.22
2022-10-21T06:23:21.144Z,97569.06
2022-10-21T06:26:04.304Z,97573.06
2022-10-21T06:28:34.019Z,97576.53
2022-10-21T06:31:01.684Z,97592.25
2022-10-21T06:33:29.264Z,97588.09
2022-10-21T06:35:56.752Z,97581.38
2022-10-21T06:38:26.189Z,97576.84
2022-10-21T06:41:01.372Z,97585.81
2022-10-21T06:43:29.473Z,97584.03
2022-10-21T06:46:09.209Z,97585.31
2022-10-21T06:48:36.684Z,97587.63
2022-10-21T06:51:09.937Z,97585.59
2022-10-21T06:53:39.260Z,97586.97
2022-10-21T06:56:10.122Z,97587.16
2022-10-21T06:58:39.422Z,97597.69
2022-10-21T07:01:21.680Z,97601.16
2022-10-21T07:04:00.013Z,97596.34
2022-10-21T07:06:27.695Z,97601.81
2022-10-21T07:08:59.428Z,97613.19
2022-10-21T07:11:28.423Z,97624.72
2022-10-21T07:13:56.024Z,97629.09
2022-10-21T07:16:29.951Z,97601.59
2022-10-21T07:18:57.584Z,97598.94
2022-10-21T07:21:27.590Z,97598.91
2022-10-21T07:23:57.944Z,97588.63
2022-10-21T07:26:29.444Z,97593.22
2022-10-21T07:28:59.154Z,97582.94
2022-10-21T07:31:28.091Z,97594.09
2022-10-21T07:33:56.257Z,97587.88
2022-10-21T07:36:27.613Z,97589.06
2022-10-21T07:38:58.602Z,97579.94
2022-10-21T07:41:29.889Z,97570.03
2022-10-21T07:43:58.218Z,97573.41
2022-10-21T07:46:25.741Z,97563.78
2022-10-21T07:48:53.893Z,97566.75
2022-10-21T07:51:28.514Z,97566.34
2022-10-21T07:54:00.050Z,97557.78
2022-10-21T07:56:49.048Z,97555.13
2022-10-21T07:59:18.003Z,97545.00
2022-10-21T08:04:22.683Z,97547.25
2022-10-21T08:06:50.181Z,97540.91
2022-10-21T08:09:17.977Z,97545.88
2022-10-21T08:11:46.041Z,97540.31
2022-10-21T08:14:14.330Z,97538.16
2022-10-21T08:16:42.543Z,97536.28
2022-10-21T08:19:18.178Z,97528.28
2022-10-21T08:21:45.690Z,97524.97
2022-10-21T08:24:13.122Z,97520.34
2022-10-21T08:26:40.651Z,97526.31
2022-10-21T08:29:08.058Z,97524.94
2022-10-21T08:31:35.597Z,97531.88
2022-10-21T08:34:03.172Z,97531.63
2022-10-21T08:36:30.717Z,97535.50
2022-10-21T08:38:58.838Z,97532.38
2022-10-21T08:41:29.071Z,97523.19
2022-10-21T08:44:02.252Z,97516.03
2022-10-21T08:47:27.051Z,97510.16
2022-10-21T08:50:12.047Z,97503.88
2022-10-21T08:52:51.171Z,97502.47
2022-10-21T08:55:26.231Z,97501.47
2022-10-21T08:57:54.860Z,97500.19
2022-10-21T09:00:36.170Z,97504.84
2022-10-21T09:03:40.280Z,97508.72
2022-10-21T09:06:23.962Z,97508.56
2022-10-21T09:09:36.649Z,97507.63
2022-10-21T09:12:33.113Z,97512.03
2022-10-21T09:15:37.751Z,97504.88
2022-10-21T09:18:26.787Z,97503.19
2022-10-21T09:21:05.948Z,97496.50
2022-10-21T09:24:07.052Z,97489.19
2022-10-21T09:26:43.023Z,97484.66
2022-10-21T09:29:32.233Z,97485.81
2022-10-21T09:32:05.841Z,97474.31
2022-10-21T09:35:13.929Z,97467.31
2022-10-21T09:37:41.880Z,97474.31
2022-10-21T09:40:30.981Z,97481.50
2022-10-21T09:43:00.812Z,97475.34
2022-10-21T09:45:45.841Z,97466.09
2022-10-21T09:48:19.960Z,97462.63
2022-10-21T09:50:51.860Z,97452.28
2022-10-21T09:53:26.459Z,97459.47
2022-10-21T09:56:04.399Z,97479.41
2022-10-21T09:58:48.687Z,97479.75
2022-10-21T10:01:20.597Z,97462.72
2022-10-21T10:03:52.956Z,97463.06
2022-10-21T10:06:42.370Z,97476.38
2022-10-21T10:09:16.476Z,97475.97
2022-10-21T10:11:51.850Z,97465.03
2022-10-21T10:14:32.856Z,97464.03
2022-10-21T10:17:33.970Z,97476.00
2022-10-21T10:20:21.816Z,97462.34
2022-10-21T10:22:58.424Z,97473.06
2022-10-21T10:25:31.921Z,97468.84
2022-10-21T10:28:02.041Z,97483.88
2022-10-21T10:30:41.149Z,97471.75
2022-10-21T10:33:13.888Z,97469.72
2022-10-21T10:35:49.758Z,97477.97
2022-10-21T10:38:26.769Z,97478.13
2022-10-21T10:40:56.450Z,97475.16
2022-10-21T10:43:35.400Z,97474.78
2022-10-21T10:46:05.659Z,97480.00
2022-10-21T10:48:46.600Z,97473.47
2022-10-21T10:51:32.930Z,97469.13
2022-10-21T10:54:15.340Z,97460.09
2022-10-21T10:57:15.326Z,97457.81
2022-10-21T10:59:52.336Z,97467.97
2022-10-21T11:02:37.860Z,97454.25
2022-10-21T11:05:23.681Z,97457.72
2022-10-21T11:07:54.169Z,97452.06
2022-10-21T11:10:40.148Z,97444.28
2022-10-21T11:13:14.878Z,97446.22
2022-10-21T11:16:01.649Z,97447.38
2022-10-21T11:18:37.471Z,97454.47
2022-10-21T11:21:29.477Z,97443.13
2022-10-21T11:24:12.019Z,97442.84
2022-10-21T11:27:21.346Z,97435.16
2022-10-21T11:30:10.608Z,97423.53
2022-10-21T11:33:17.798Z,97426.72
2022-10-21T11:35:57.744Z,97423.44
2022-10-21T11:42:38.703Z,97418.31
2022-10-21T11:45:21.865Z,97410.47
2022-10-21T11:48:06.091Z,97412.28
2022-10-21T11:50:33.399Z,97413.44
2022-10-21T11:53:12.906Z,97419.59
2022-10-21T11:56:07.670Z,97409.41
2022-10-21T11:58:59.786Z,97426.25
2022-10-21T12:01:56.152Z,97422.28
2022-10-21T12:05:07.506Z,97416.25
2022-10-21T12:07:43.770Z,97419.78
2022-10-21T12:10:31.029Z,97424.66
2022-10-21T12:13:28.140Z,97432.34
2022-10-21T12:15:57.895Z,97438.81
2022-10-21T12:18:29.090Z,97435.59
2022-10-21T12:20:58.668Z,97445.84
2022-10-21T12:23:29.496Z,97443.63
2022-10-21T12:26:24.670Z,97440.88
2022-10-21T12:29:14.491Z,97440.25
2022-10-21T12:31:51.809Z,97450.44
2022-10-21T12:34:19.829Z,97442.75
2022-10-21T12:36:50.748Z,97446.66
2022-10-21T12:39:49.495Z,97450.00
2022-10-21T12:42:23.289Z,97444.03
2022-10-21T12:44:53.118Z,97441.75
2022-10-21T12:47:25.631Z,97450.56
2022-10-21T12:50:07.555Z,97453.34
2022-10-21T12:52:38.548Z,97451.81
2022-10-21T12:55:16.939Z,97443.31
2022-10-21T12:57:44.612Z,97449.88
2022-10-21T13:00:29.942Z,97444.75
2022-10-21T13:03:10.819Z,97453.03
2022-10-21T13:05:38.205Z,97454.09
2022-10-21T13:08:21.178Z,97454.09
2022-10-21T13:11:06.436Z,97460.88
2022-10-21T13:13:41.116Z,97460.81
2022-10-21T13:16:20.888Z,97462.75
2022-10-21T13:19:02.847Z,97461.38
2022-10-21T13:21:35.478Z,97466.03
2022-10-21T13:24:14.388Z,97460.63
2022-10-21T13:26:51.219Z,97466.84
2022-10-21T13:29:30.209Z,97466.03
2022-10-21T13:32:18.689Z,97451.66
2022-10-21T13:34:49.011Z,97452.44
2022-10-21T13:37:24.226Z,97458.34
2022-10-21T13:39:53.494Z,97470.31
2022-10-21T13:42:24.799Z,97464.34
2022-10-21T13:44:57.877Z,97457.56
2022-10-21T13:47:31.918Z,97448.06
2022-10-21T13:50:20.362Z,97456.88
2022-10-21T13:52:47.925Z,97459.00
2022-10-21T13:55:21.839Z,97449.13
2022-10-21T13:57:51.423Z,97442.78
2022-10-21T14:00:32.466Z,97469.50
2022-10-21T14:03:05.949Z,97498.56
2022-10-21T14:05:35.566Z,97483.81
2022-10-21T14:08:05.606Z,97487.84
2022-10-21T14:10:33.135Z,97467.72
2022-10-21T14:13:00.825Z,97461.47
2022-10-21T14:15:37.897Z,97463.44
2022-10-21T14:18:06.184Z,97458.16
2022-10-21T14:20:36.829Z,97457.44
2022-10-21T14:23:06.941Z,97432.69
2022-10-21T14:25:34.967Z,97436.25
2022-10-21T14:28:04.422Z,97421.16
2022-10-21T14:30:34.106Z,97419.06
2022-10-21T14:33:04.193Z,97424.75
2022-10-21T14:35:32.206Z,97427.16
2022-10-21T14:38:02.811Z,97434.94
2022-10-21T14:40:41.734Z,97445.72
2022-10-21T14:43:12.208Z,97454.19
2022-10-21T14:45:47.020Z,97468.75
2022-10-21T14:48:14.357Z,97460.88
2022-10-21T14:50:42.956Z,97455.19
2022-10-21T14:53:16.959Z,97460.53
2022-10-21T14:55:46.207Z,97458.56
2022-10-21T14:58:23.041Z,97460.66
2022-10-21T15:01:17.267Z,97459.38
2022-10-21T15:03:50.865Z,97460.09
2022-10-21T15:06:35.942Z,97461.94
2022-10-21T15:09:12.501Z,97460.91
2022-10-21T15:11:45.089Z,97465.16
2022-10-21T15:14:12.477Z,97473.16
2022-10-21T15:16:54.746Z,97497.81
2022-10-21T15:19:26.486Z,97479.41
2022-10-21T15:22:03.495Z,97475.34
2022-10-21T15:24:30.926Z,97457.78
2022-10-21T15:27:00.348Z,97451.06
2022-10-21T15:29:35.017Z,97465.53
2022-10-21T15:32:03.843Z,97450.22
2022-10-21T15:34:31.570Z,97449.66
2022-10-21T15:36:59.086Z,97451.50
2022-10-21T15:39:26.667Z,97444.34
2022-10-21T15:41:56.381Z,97439.13
2022-10-21T15:44:27.888Z,97439.81
2022-10-21T15:46:59.462Z,97438.44
2022-10-21T15:49:32.222Z,97454.03
2022-10-21T15:51:59.717Z,97455.44
2022-10-21T15:54:27.181Z,97435.63
2022-10-21T15:56:55.747Z,97437.47
2022-10-21T15:59:29.073Z,97437.28
2022-10-21T16:01:57.168Z,97446.16
2022-10-21T16:04:25.485Z,97448.69
2022-10-21T16:06:54.508Z,97441.19
2022-10-21T16:09:25.523Z,97432.63
2022-10-21T16:12:00.948Z,97453.22
2022-10-21T16:14:30.767Z,97456.25
2022-10-21T16:16:59.733Z,97462.81
2022-10-21T16:19:28.048Z,97469.75
2022-10-21T16:21:56.282Z,97491.03
2022-10-21T16:24:23.644Z,97492.66
2022-10-21T16:26:51.062Z,97485.94
2022-10-21T16:29:21.525Z,97481.91
2022-10-21T16:31:49.679Z,97467.34
2022-10-21T16:34:17.274Z,97481.78
2022-10-21T16:36:45.134Z,97471.75
2022-10-21T16:39:18.830Z,97478.22
2022-10-21T16:41:46.534Z,97476.47
2022-10-21T16:44:14.576Z,97466.97
2022-10-21T16:46:47.652Z,97462.72
2022-10-21T16:49:18.495Z,97458.53
2022-10-21T16:51:49.117Z,97462.97
2022-10-21T16:54:16.744Z,97462.13
2022-10-21T16:56:44.107Z,97462.72
2022-10-21T16:59:11.901Z,97474.16
2022-10-21T17:01:39.696Z,97474.97
2022-10-21T17:04:07.378Z,97476.47
2022-10-21T17:06:34.871Z,97475.41
2022-10-21T17:09:02.360Z,97469.28
2022-10-21T17:11:37.756Z,97461.66
2022-10-21T17:14:08.427Z,97480.03
2022-10-21T17:16:35.871Z,97466.25
2022-10-21T17:19:03.525Z,97473.56
2022-10-21T17:21:33.011Z,97464.50
2022-10-21T17:24:02.685Z,97473.75
2022-10-21T17:26:30.492Z,97460.69
2022-10-21T17:28:58.343Z,97471.47
2022-10-21T17:31:28.475Z,97464.06
2022-10-21T17:33:58.841Z,97451.00
2022-10-21T17:36:26.264Z,97452.63
2022-10-21T17:38:53.773Z,97466.59
2022-10-21T17:41:21.287Z,97464.09
2022-10-21T17:43:48.801Z,97463.63
2022-10-21T17:46:18.875Z,97470.22
2022-10-21T17:48:50.895Z,97463.50
2022-10-21T17:51:18.427Z,97467.34
2022-10-21T17:53:51.725Z,97471.84
2022-10-21T17:56:20.006Z,97479.44
2022-10-21T17:58:52.485Z,97470.22
2022-10-21T18:01:20.707Z,97450.19
2022-10-21T18:03:48.474Z,97450.91
2022-10-21T18:06:16.495Z,97447.66
2022-10-21T18:08:44.218Z,97446.16
2022-10-21T18:11:15.423Z,97447.34
2022-10-21T18:13:43.497Z,97445.50
2022-10-21T18:16:14.123Z,97450.94
2022-10-21T18:21:20.203Z,97454.16
2022-10-21T18:23:50.731Z,97450.03
2022-10-21T18:26:24.835Z,97458.44
2022-10-21T18:28:57.969Z,97453.72
2022-10-21T18:31:29.844Z,97429.19
2022-10-21T18:33:59.732Z,97428.38
2022-10-21T18:36:27.894Z,97425.72
2022-10-21T18:38:57.034Z,97419.22
2022-10-21T18:41:25.141Z,97423.38
2022-10-21T18:44:01.717Z,97419.31
2022-10-21T18:46:30.081Z,97414.31
2022-10-21T18:48:58.598Z,97405.63
2022-10-21T18:51:26.491Z,97418.59
2022-10-21T18:53:54.037Z,97422.50
2022-10-21T18:56:24.488Z,97415.75
2022-10-21T18:58:52.679Z,97406.25
2022-10-21T19:01:21.640Z,97404.63
2022-10-21T19:03:50.936Z,97398.94
2022-10-21T19:06:41.536Z,97394.78
2022-10-21T19:09:13.149Z,97401.34
2022-10-21T19:11:44.158Z,97407.69
2022-10-21T19:14:14.194Z,97404.56
2022-10-21T19:16:44.219Z,97413.28
2022-10-21T19:19:12.354Z,97403.75
2022-10-21T19:21:39.774Z,97409.25
2022-10-21T19:24:07.557Z,97417.03
2022-10-21T19:26:37.218Z,97417.81
2022-10-21T19:29:08.714Z,97421.88
2022-10-21T19:31:38.541Z,97427.53
2022-10-21T19:34:07.488Z,97423.44
2022-10-21T19:36:35.203Z,97424.81
2022-10-21T19:39:02.777Z,97421.44
2022-10-21T19:41:30.382Z,97426.78
2022-10-21T19:44:00.540Z,97434.19
2022-10-21T19:46:30.877Z,97441.63
2022-10-21T19:49:05.669Z,97442.28
2022-10-21T19:51:34.010Z,97438.41
2022-10-21T19:54:05.004Z,97427.66
2022-10-21T19:56:34.733Z,97433.41
2022-10-21T19:59:03.376Z,97429.53
2022-10-21T20:01:32.794Z,97430.75
2022-10-21T20:04:02.129Z,97433.19
2022-10-21T20:06:35.494Z,97433.41
2022-10-21T20:09:10.286Z,97431.63
2022-10-21T20:11:39.900Z,97428.97
2022-10-21T20:14:07.477Z,97421.25
2022-10-21T20:16:37.924Z,97427.44
2022-10-21T20:19:07.010Z,97431.94
2022-10-21T20:21:35.928Z,97427.50
2022-10-21T20:24:03.807Z,97420.69
2022-10-21T20:26:31.316Z,97422.13
2022-10-21T20:29:00.764Z,97428.78
2022-10-21T20:31:28.819Z,97422.69
2022-10-21T20:33:56.639Z,97421.34
2022-10-21T20:36:27.459Z,97420.84
2022-10-21T20:38:57.676Z,97421.38
2022-10-21T20:41:33.738Z,97418.72
2022-10-21T20:44:02.680Z,97414.75
2022-10-21T20:46:35.144Z,97421.78
2022-10-21T20:49:05.538Z,97425.34
2022-10-21T20:51:34.413Z,97424.22
2022-10-21T20:54:07.487Z,97430.84
2022-10-21T20:56:37.349Z,97434.56
2022-10-21T20:59:06.797Z,97441.22
2022-10-21T21:01:37.542Z,97437.81
2022-10-21T21:04:09.076Z,97444.22
2022-10-21T21:06:38.654Z,97443.41
2022-10-21T21:11:54.349Z,97431.59
2022-10-21T21:14:21.938Z,97445.38
2022-10-21T21:16:49.364Z,97428.97
2022-10-21T21:19:16.918Z,97432.44
2022-10-21T21:21:44.314Z,97432.44
2022-10-21T21:24:11.867Z,97436.47
2022-10-21T21:26:40.156Z,97428.69
2022-10-21T21:29:13.304Z,97436.66
2022-10-21T21:31:41.754Z,97434.22
2022-10-21T21:34:10.115Z,97435.50
2022-10-21T21:36:37.960Z,97444.88
2022-10-21T21:39:07.366Z,97445.69
2022-10-21T21:41:35.567Z,97440.66
2022-10-21T21:44:05.008Z,97440.75
2022-10-21T21:46:32.493Z,97444.31
2022-10-21T21:49:05.031Z,97442.44
2022-10-21T21:51:34.640Z,97444.13
2022-10-21T21:54:02.390Z,97449.78
2022-10-21T21:56:29.966Z,97449.88
2022-10-21T21:58:58.251Z,97462.25
2022-10-21T22:01:28.172Z,97448.31
2022-10-21T22:03:56.975Z,97441.66
2022-10-21T22:06:28.456Z,97448.63
2022-10-21T22:08:56.782Z,97450.13
2022-10-21T22:11:26.474Z,97452.25
2022-10-21T22:13:53.919Z,97447.13
2022-10-21T22:16:24.346Z,97446.75
2022-10-21T22:18:52.135Z,97435.34
2022-10-21T22:21:20.008Z,97430.00
2022-10-21T22:23:48.918Z,97435.84
2022-10-21T22:26:18.837Z,97429.69
2022-10-21T22:28:47.022Z,97437.81
2022-10-21T22:31:16.981Z,97444.13
2022-10-21T22:33:45.376Z,97449.47
2022-10-21T22:36:12.793Z,97448.84
2022-10-21T22:38:40.368Z,97432.75
2022-10-21T22:41:12.214Z,97441.00
2022-10-21T22:43:41.016Z,97449.34
2022-10-21T22:48:55.976Z,97438.78
2022-10-21T22:51:23.549Z,97428.03
2022-10-21T22:53:55.299Z,97426.41
2022-10-21T22:56:25.890Z,97435.00
2022-10-21T22:58:53.809Z,97429.09
2022-10-21T23:01:21.336Z,97423.25
2022-10-21T23:03:48.868Z,97423.53
2022-10-21T23:06:16.275Z,97426.50
2022-10-21T23:08:43.857Z,97430.16
2022-10-21T23:11:11.358Z,97433.13
2022-10-21T23:13:47.363Z,97427.63
2022-10-21T23:16:24.004Z,97426.06
2022-10-21T23:18:51.449Z,97410.53
2022-10-21T23:21:18.904Z,97419.09
2022-10-21T23:23:46.387Z,97414.38
2022-10-21T23:26:13.996Z,97409.03
2022-10-21T23:28:41.412Z,97400.97
2022-10-21T23:31:08.864Z,97393.31
2022-10-21T23:33:36.404Z,97393.50
2022-10-21T23:36:04.048Z,97382.41
2022-10-21T23:38:31.550Z,97380.78
2022-10-21T23:40:58.973Z,97394.94
2022-10-21T23:43:26.474Z,97408.28
2022-10-21T23:45:53.974Z,97414.13
2022-10-21T23:48:21.624Z,97415.03
2022-10-21T23:50:49.314Z,97427.56
2022-10-21T23:53:16.797Z,97436.31
2022-10-21T23:55:44.285Z,97448.06
2022-10-21T23:58:11.755Z,97446.75
